sensor_id;sensor_type;location;lat;lon;timestamp;pressure;altitude;pressure_sealevel;temperature;humidity
51287;BME280;37364;46.974;18.916;2022-09-09T00:01:51;154773.84;;;17.53;100.00
51287;BME280;37364;46.974;18.916;2022-09-09T00:04:27;154785.53;;;17.58;100.00
51287;BME280;37364;46.974;18.916;2022-09-09T00:07:03;154773.84;;;17.53;100.00
51287;BME280;37364;46.974;18.916;2022-09-09T00:09:40;154779.03;;;17.55;100.00
51287;BME280;37364;46.974;18.916;2022-09-09T00:12:27;154773.84;;;17.53;100.00
51287;BME280;37364;46.974;18.916;2022-09-09T00:15:11;154789.44;;;17.59;100.00
51287;BME280;37364;46.974;18.916;2022-09-09T00:17:47;154799.84;;;17.64;100.00
51287;BME280;37364;46.974;18.916;2022-09-09T00:20:26;154763.44;;;17.49;100.00
51287;BME280;37364;46.974;18.916;2022-09-09T00:23:04;154755.59;;;17.46;100.00
51287;BME280;37364;46.974;18.916;2022-09-09T00:25:45;154772.53;;;17.53;100.00
51287;BME280;37364;46.974;18.916;2022-09-09T00:28:22;154747.81;;;17.43;100.00
51287;BME280;37364;46.974;18.916;2022-09-09T00:30:55;154759.53;;;17.48;100.00
51287;BME280;37364;46.974;18.916;2022-09-09T00:33:30;154740.00;;;17.40;100.00
51287;BME280;37364;46.974;18.916;2022-09-09T00:36:01;154737.44;;;17.39;100.00
51287;BME280;37364;46.974;18.916;2022-09-09T00:38:34;154740.00;;;17.40;100.00
51287;BME280;37364;46.974;18.916;2022-09-09T00:41:11;154738.72;;;17.39;100.00
51287;BME280;37364;46.974;18.916;2022-09-09T00:43:49;154724.41;;;17.34;100.00
51287;BME280;37364;46.974;18.916;2022-09-09T00:47:00;154720.50;;;17.32;100.00
51287;BME280;37364;46.974;18.916;2022-09-09T00:49:40;154719.19;;;17.32;100.00
51287;BME280;37364;46.974;18.916;2022-09-09T00:52:23;154702.31;;;17.25;100.00
51287;BME280;37364;46.974;18.916;2022-09-09T00:55:05;154698.41;;;17.24;100.00
51287;BME280;37364;46.974;18.916;2022-09-09T00:57:38;154700.97;;;17.25;100.00
51287;BME280;37364;46.974;18.916;2022-09-09T01:00:20;154690.56;;;17.20;100.00
51287;BME280;37364;46.974;18.916;2022-09-09T01:03:02;154690.56;;;17.20;100.00
51287;BME280;37364;46.974;18.916;2022-09-09T01:05:40;154686.72;;;17.19;100.00
51287;BME280;37364;46.974;18.916;2022-09-09T01:08:23;154681.47;;;17.17;100.00
51287;BME280;37364;46.974;18.916;2022-09-09T01:10:59;154688.00;;;17.19;100.00
51287;BME280;37364;46.974;18.916;2022-09-09T01:13:32;154680.19;;;17.16;100.00
51287;BME280;37364;46.974;18.916;2022-09-09T01:16:10;154678.88;;;17.16;100.00
51287;BME280;37364;46.974;18.916;2022-09-09T01:18:48;154673.69;;;17.14;100.00
51287;BME280;37364;46.974;18.916;2022-09-09T01:21:25;154655.47;;;17.07;100.00
51287;BME280;37364;46.974;18.916;2022-09-09T01:24:13;154668.50;;;17.12;100.00
51287;BME280;37364;46.974;18.916;2022-09-09T01:27:15;154660.66;;;17.09;100.00
51287;BME280;37364;46.974;18.916;2022-09-09T01:29:47;154665.88;;;17.11;100.00
51287;BME280;37364;46.974;18.916;2022-09-09T01:32:38;154650.28;;;17.05;100.00
51287;BME280;37364;46.974;18.916;2022-09-09T01:35:15;154647.69;;;17.04;100.00
51287;BME280;37364;46.974;18.916;2022-09-09T01:37:52;154639.88;;;17.00;100.00
51287;BME280;37364;46.974;18.916;2022-09-09T01:40:23;154637.28;;;16.99;100.00
51287;BME280;37364;46.974;18.916;2022-09-09T01:42:58;154635.97;;;16.99;100.00
51287;BME280;37364;46.974;18.916;2022-09-09T01:45:28;154637.28;;;16.99;100.00
51287;BME280;37364;46.974;18.916;2022-09-09T01:47:59;154637.28;;;16.99;100.00
51287;BME280;37364;46.974;18.916;2022-09-09T01:50:45;154628.19;;;16.96;100.00
51287;BME280;37364;46.974;18.916;2022-09-09T01:53:17;154629.47;;;16.96;100.00
51287;BME280;37364;46.974;18.916;2022-09-09T01:55:58;154628.19;;;16.96;100.00
51287;BME280;37364;46.974;18.916;2022-09-09T01:58:48;154637.28;;;16.99;100.00
51287;BME280;37364;46.974;18.916;2022-09-09T02:01:28;154632.09;;;16.97;100.00
51287;BME280;37364;46.974;18.916;2022-09-09T02:04:14;154632.09;;;16.97;100.00
51287;BME280;37364;46.974;18.916;2022-09-09T02:06:53;154634.66;;;16.98;100.00
51287;BME280;37364;46.974;18.916;2022-09-09T02:09:30;154637.28;;;16.99;100.00
51287;BME280;37364;46.974;18.916;2022-09-09T02:12:04;154637.28;;;16.99;100.00
51287;BME280;37364;46.974;18.916;2022-09-09T02:14:49;154645.06;;;17.03;100.00
51287;BME280;37364;46.974;18.916;2022-09-09T02:17:26;154629.47;;;16.96;100.00
51287;BME280;37364;46.974;18.916;2022-09-09T02:20:13;154643.78;;;17.02;100.00
51287;BME280;37364;46.974;18.916;2022-09-09T02:22:50;154642.50;;;17.02;100.00
51287;BME280;37364;46.974;18.916;2022-09-09T02:25:24;154633.38;;;16.98;100.00
51287;BME280;37364;46.974;18.916;2022-09-09T02:28:05;154629.47;;;16.96;100.00
51287;BME280;37364;46.974;18.916;2022-09-09T02:30:41;154623.00;;;16.94;100.00
51287;BME280;37364;46.974;18.916;2022-09-09T02:33:17;154625.56;;;16.95;100.00
51287;BME280;37364;46.974;18.916;2022-09-09T02:35:51;154626.84;;;16.95;100.00
51287;BME280;37364;46.974;18.916;2022-09-09T02:38:23;154623.00;;;16.94;100.00
51287;BME280;37364;46.974;18.916;2022-09-09T02:41:05;154626.84;;;16.95;100.00
51287;BME280;37364;46.974;18.916;2022-09-09T02:43:35;154615.16;;;16.91;100.00
51287;BME280;37364;46.974;18.916;2022-09-09T02:46:27;154616.44;;;16.91;100.00
51287;BME280;37364;46.974;18.916;2022-09-09T02:49:06;154603.47;;;16.86;100.00
51287;BME280;37364;46.974;18.916;2022-09-09T02:51:46;154608.69;;;16.88;100.00
51287;BME280;37364;46.974;18.916;2022-09-09T02:54:27;154594.38;;;16.83;100.00
51287;BME280;37364;46.974;18.916;2022-09-09T02:57:04;154580.00;;;16.77;100.00
51287;BME280;37364;46.974;18.916;2022-09-09T02:59:37;154599.56;;;16.85;100.00
51287;BME280;37364;46.974;18.916;2022-09-09T03:02:11;154589.13;;;16.80;100.00
51287;BME280;37364;46.974;18.916;2022-09-09T03:04:46;154595.66;;;16.83;100.00
51287;BME280;37364;46.974;18.916;2022-09-09T03:07:21;154577.44;;;16.76;100.00
51287;BME280;37364;46.974;18.916;2022-09-09T03:09:52;154574.81;;;16.75;100.00
51287;BME280;37364;46.974;18.916;2022-09-09T03:12:25;154555.31;;;16.67;100.00
51287;BME280;37364;46.974;18.916;2022-09-09T03:14:55;154557.94;;;16.68;100.00
51287;BME280;37364;46.974;18.916;2022-09-09T03:17:29;154559.22;;;16.69;100.00
51287;BME280;37364;46.974;18.916;2022-09-09T03:19:59;154565.69;;;16.71;100.00
51287;BME280;37364;46.974;18.916;2022-09-09T03:22:29;154547.53;;;16.64;100.00
51287;BME280;37364;46.974;18.916;2022-09-09T03:25:00;154580.00;;;16.77;100.00
51287;BME280;37364;46.974;18.916;2022-09-09T03:27:35;154559.22;;;16.69;100.00
51287;BME280;37364;46.974;18.916;2022-09-09T03:30:07;154581.31;;;16.77;100.00
51287;BME280;37364;46.974;18.916;2022-09-09T03:32:40;154581.31;;;16.77;100.00
51287;BME280;37364;46.974;18.916;2022-09-09T03:35:15;154561.78;;;16.70;100.00
51287;BME280;37364;46.974;18.916;2022-09-09T03:37:45;154555.31;;;16.67;100.00
51287;BME280;37364;46.974;18.916;2022-09-09T03:40:16;154569.63;;;16.73;100.00
51287;BME280;37364;46.974;18.916;2022-09-09T03:42:47;154573.53;;;16.74;100.00
51287;BME280;37364;46.974;18.916;2022-09-09T03:45:18;154563.13;;;16.70;100.00
51287;BME280;37364;46.974;18.916;2022-09-09T03:47:51;154569.63;;;16.73;100.00
51287;BME280;37364;46.974;18.916;2022-09-09T03:50:21;154580.00;;;16.77;100.00
51287;BME280;37364;46.974;18.916;2022-09-09T03:52:52;154582.63;;;16.78;100.00
51287;BME280;37364;46.974;18.916;2022-09-09T03:55:22;154581.31;;;16.77;100.00
51287;BME280;37364;46.974;18.916;2022-09-09T03:57:52;154572.19;;;16.74;100.00
51287;BME280;37364;46.974;18.916;2022-09-09T04:00:23;154559.22;;;16.69;100.00
51287;BME280;37364;46.974;18.916;2022-09-09T04:02:57;154574.81;;;16.75;100.00
51287;BME280;37364;46.974;18.916;2022-09-09T04:05:29;154569.63;;;16.73;100.00
51287;BME280;37364;46.974;18.916;2022-09-09T04:08:02;154595.66;;;16.83;100.00
51287;BME280;37364;46.974;18.916;2022-09-09T04:10:33;154569.63;;;16.73;100.00
51287;BME280;37364;46.974;18.916;2022-09-09T04:13:06;154593.09;;;16.82;100.00
51287;BME280;37364;46.974;18.916;2022-09-09T04:15:36;154582.63;;;16.78;100.00
51287;BME280;37364;46.974;18.916;2022-09-09T04:18:13;154574.81;;;16.75;100.00
51287;BME280;37364;46.974;18.916;2022-09-09T04:20:47;154572.19;;;16.74;100.00
51287;BME280;37364;46.974;18.916;2022-09-09T04:23:21;154567.00;;;16.72;100.00
51287;BME280;37364;46.974;18.916;2022-09-09T04:25:53;154564.41;;;16.71;100.00
51287;BME280;37364;46.974;18.916;2022-09-09T04:28:26;154565.69;;;16.71;100.00
51287;BME280;37364;46.974;18.916;2022-09-09T04:31:05;154565.69;;;16.71;100.00
51287;BME280;37364;46.974;18.916;2022-09-09T04:33:41;154554.03;;;16.67;100.00
51287;BME280;37364;46.974;18.916;2022-09-09T04:36:16;154564.41;;;16.71;100.00
51287;BME280;37364;46.974;18.916;2022-09-09T04:38:51;154564.41;;;16.71;100.00
51287;BME280;37364;46.974;18.916;2022-09-09T04:41:25;154572.19;;;16.74;100.00
51287;BME280;37364;46.974;18.916;2022-09-09T04:43:57;154598.28;;;16.84;100.00
51287;BME280;37364;46.974;18.916;2022-09-09T04:46:31;154574.81;;;16.75;100.00
51287;BME280;37364;46.974;18.916;2022-09-09T04:49:10;154573.53;;;16.74;100.00
51287;BME280;37364;46.974;18.916;2022-09-09T04:51:43;154551.41;;;16.66;100.00
51287;BME280;37364;46.974;18.916;2022-09-09T04:54:17;154557.94;;;16.68;100.00
51287;BME280;37364;46.974;18.916;2022-09-09T04:56:47;154559.22;;;16.69;100.00
51287;BME280;37364;46.974;18.916;2022-09-09T04:59:19;154565.69;;;16.71;100.00
51287;BME280;37364;46.974;18.916;2022-09-09T05:01:54;154574.81;;;16.75;100.00
51287;BME280;37364;46.974;18.916;2022-09-09T05:04:26;154561.78;;;16.70;100.00
51287;BME280;37364;46.974;18.916;2022-09-09T05:06:57;154593.09;;;16.82;100.00
51287;BME280;37364;46.974;18.916;2022-09-09T05:09:28;154591.75;;;16.82;100.00
51287;BME280;37364;46.974;18.916;2022-09-09T05:11:59;154585.22;;;16.79;100.00
51287;BME280;37364;46.974;18.916;2022-09-09T05:14:33;154594.38;;;16.83;100.00
51287;BME280;37364;46.974;18.916;2022-09-09T05:17:05;154606.06;;;16.87;100.00
51287;BME280;37364;46.974;18.916;2022-09-09T05:19:40;154628.19;;;16.96;100.00
51287;BME280;37364;46.974;18.916;2022-09-09T05:22:11;154638.59;;;17.00;100.00
51287;BME280;37364;46.974;18.916;2022-09-09T05:24:44;154639.88;;;17.00;100.00
51287;BME280;37364;46.974;18.916;2022-09-09T05:27:15;154654.19;;;17.06;100.00
51287;BME280;37364;46.974;18.916;2022-09-09T05:29:48;154658.09;;;17.08;100.00
51287;BME280;37364;46.974;18.916;2022-09-09T05:32:18;154654.19;;;17.06;100.00
51287;BME280;37364;46.974;18.916;2022-09-09T05:34:51;154635.97;;;16.99;100.00
51287;BME280;37364;46.974;18.916;2022-09-09T05:37:21;154646.34;;;17.03;100.00
51287;BME280;37364;46.974;18.916;2022-09-09T05:39:52;154658.09;;;17.08;100.00
51287;BME280;37364;46.974;18.916;2022-09-09T05:42:23;154664.56;;;17.10;100.00
51287;BME280;37364;46.974;18.916;2022-09-09T05:44:54;154685.38;;;17.18;100.00
51287;BME280;37364;46.974;18.916;2022-09-09T05:47:25;154695.78;;;17.23;100.00
51287;BME280;37364;46.974;18.916;2022-09-09T05:50:00;154775.13;;;17.54;100.00
51287;BME280;37364;46.974;18.916;2022-09-09T05:52:30;154853.25;;;17.85;100.00
51287;BME280;37364;46.974;18.916;2022-09-09T05:55:00;154898.78;;;18.03;100.00
51287;BME280;37364;46.974;18.916;2022-09-09T05:57:31;154957.34;;;18.26;100.00
51287;BME280;37364;46.974;18.916;2022-09-09T06:00:03;154978.16;;;18.34;100.00
51287;BME280;37364;46.974;18.916;2022-09-09T06:02:39;154979.44;;;18.34;100.00
51287;BME280;37364;46.974;18.916;2022-09-09T06:05:16;155031.53;;;18.55;100.00
51287;BME280;37364;46.974;18.916;2022-09-09T06:07:46;155027.63;;;18.53;100.00
51287;BME280;37364;46.974;18.916;2022-09-09T06:10:16;154958.63;;;18.26;100.00
51287;BME280;37364;46.974;18.916;2022-09-09T06:12:46;155031.53;;;18.55;100.00
51287;BME280;37364;46.974;18.916;2022-09-09T06:15:17;155082.28;;;18.75;100.00
51287;BME280;37364;46.974;18.916;2022-09-09T06:17:47;155157.84;;;19.05;100.00
51287;BME280;37364;46.974;18.916;2022-09-09T06:20:26;155108.38;;;18.85;100.00
51287;BME280;37364;46.974;18.916;2022-09-09T06:22:58;155105.78;;;18.84;100.00
51287;BME280;37364;46.974;18.916;2022-09-09T06:25:29;155130.53;;;18.94;100.00
51287;BME280;37364;46.974;18.916;2022-09-09T06:27:59;155103.16;;;18.83;100.00
51287;BME280;37364;46.974;18.916;2022-09-09T06:30:29;155155.25;;;19.04;100.00
51287;BME280;37364;46.974;18.916;2022-09-09T06:33:03;155144.84;;;19.00;100.00
51287;BME280;37364;46.974;18.916;2022-09-09T06:35:36;155139.66;;;18.98;100.00
51287;BME280;37364;46.974;18.916;2022-09-09T06:38:06;155142.22;;;18.99;100.00
51287;BME280;37364;46.974;18.916;2022-09-09T06:40:37;155123.97;;;18.91;100.00
51287;BME280;37364;46.974;18.916;2022-09-09T06:43:08;155129.22;;;18.93;100.00
51287;BME280;37364;46.974;18.916;2022-09-09T06:45:52;155117.47;;;18.89;100.00
51287;BME280;37364;46.974;18.916;2022-09-09T06:48:23;155123.97;;;18.91;100.00
51287;BME280;37364;46.974;18.916;2022-09-09T06:51:06;155190.41;;;19.17;100.00
51287;BME280;37364;46.974;18.916;2022-09-09T06:53:40;155199.53;;;19.21;100.00
51287;BME280;37364;46.974;18.916;2022-09-09T06:56:17;155221.66;;;19.30;100.00
51287;BME280;37364;46.974;18.916;2022-09-09T06:58:51;155314.16;;;19.66;100.00
51287;BME280;37364;46.974;18.916;2022-09-09T07:01:27;155332.41;;;19.73;100.00
51287;BME280;37364;46.974;18.916;2022-09-09T07:04:02;155324.56;;;19.70;100.00
51287;BME280;37364;46.974;18.916;2022-09-09T07:06:40;155427.50;;;20.11;100.00
51287;BME280;37364;46.974;18.916;2022-09-09T07:09:15;155535.66;;;20.53;100.00
51287;BME280;37364;46.974;18.916;2022-09-09T07:11:50;155632.19;;;20.91;100.00
51287;BME280;37364;46.974;18.916;2022-09-09T07:14:25;155796.53;;;21.56;100.00
51287;BME280;37364;46.974;18.916;2022-09-09T07:17:00;155801.72;;;21.58;100.00
51287;BME280;37364;46.974;18.916;2022-09-09T07:19:37;155795.19;;;21.56;100.00
51287;BME280;37364;46.974;18.916;2022-09-09T07:22:10;155671.25;;;21.07;100.00
51287;BME280;37364;46.974;18.916;2022-09-09T07:24:42;155683.03;;;21.11;100.00
51287;BME280;37364;46.974;18.916;2022-09-09T07:27:14;155660.84;;;21.03;100.00
51287;BME280;37364;46.974;18.916;2022-09-09T07:29:47;155662.16;;;21.03;100.00
51287;BME280;37364;46.974;18.916;2022-09-09T07:32:17;155705.16;;;21.20;100.00
51287;BME280;37364;46.974;18.916;2022-09-09T07:34:48;155650.41;;;20.99;100.00
51287;BME280;37364;46.974;18.916;2022-09-09T07:37:21;155623.06;;;20.88;100.00
51287;BME280;37364;46.974;18.916;2022-09-09T07:39:52;155591.75;;;20.76;100.00
51287;BME280;37364;46.974;18.916;2022-09-09T07:42:23;155598.28;;;20.78;100.00
51287;BME280;37364;46.974;18.916;2022-09-09T07:44:55;155656.97;;;21.01;100.00
51287;BME280;37364;46.974;18.916;2022-09-09T07:47:26;155756.00;;;21.40;100.00
51287;BME280;37364;46.974;18.916;2022-09-09T07:49:57;155696.03;;;21.17;100.00
51287;BME280;37364;46.974;18.916;2022-09-09T07:52:33;155653.03;;;21.00;100.00
51287;BME280;37364;46.974;18.916;2022-09-09T07:55:06;155728.66;;;21.29;100.00
51287;BME280;37364;46.974;18.916;2022-09-09T07:57:37;155658.25;;;21.02;100.00
51287;BME280;37364;46.974;18.916;2022-09-09T08:00:09;155662.16;;;21.03;100.00
51287;BME280;37364;46.974;18.916;2022-09-09T08:02:47;155638.69;;;20.94;100.00
51287;BME280;37364;46.974;18.916;2022-09-09T08:05:18;155680.38;;;21.10;100.00
51287;BME280;37364;46.974;18.916;2022-09-09T08:07:52;155799.09;;;21.57;100.00
51287;BME280;37364;46.974;18.916;2022-09-09T08:10:23;155737.78;;;21.33;100.00
51287;BME280;37364;46.974;18.916;2022-09-09T08:12:54;155830.38;;;21.69;100.00
51287;BME280;37364;46.974;18.916;2022-09-09T08:15:44;155859.09;;;21.81;100.00
51287;BME280;37364;46.974;18.916;2022-09-09T08:18:18;155958.22;;;22.20;100.00
51287;BME280;37364;46.974;18.916;2022-09-09T08:20:49;155973.91;;;22.26;100.00
51287;BME280;37364;46.974;18.916;2022-09-09T08:23:23;155984.34;;;22.30;100.00
51287;BME280;37364;46.974;18.916;2022-09-09T08:25:54;155959.50;;;22.20;98.33
51287;BME280;37364;46.974;18.916;2022-09-09T08:28:24;156050.94;;;22.56;96.16
51287;BME280;37364;46.974;18.916;2022-09-09T08:30:54;156052.22;;;22.57;95.27
51287;BME280;37364;46.974;18.916;2022-09-09T08:33:26;156113.53;;;22.81;95.07
51287;BME280;37364;46.974;18.916;2022-09-09T08:35:56;156199.72;;;23.15;95.17
51287;BME280;37364;46.974;18.916;2022-09-09T08:38:29;156058.72;;;22.59;94.13
51287;BME280;37364;46.974;18.916;2022-09-09T08:41:11;156156.63;;;22.98;93.10
51287;BME280;37364;46.974;18.916;2022-09-09T08:43:47;156234.94;;;23.28;92.53
51287;BME280;37364;46.974;18.916;2022-09-09T08:46:20;156211.50;;;23.19;90.89
51287;BME280;37364;46.974;18.916;2022-09-09T08:48:59;156270.25;;;23.42;87.27
51287;BME280;37364;46.974;18.916;2022-09-09T08:51:32;156187.97;;;23.10;85.80
51287;BME280;37364;46.974;18.916;2022-09-09T08:54:07;156228.44;;;23.26;85.77
51287;BME280;37364;46.974;18.916;2022-09-09T08:56:39;156251.94;;;23.35;85.31
51287;BME280;37364;46.974;18.916;2022-09-09T08:59:15;156328.94;;;23.65;86.26
51287;BME280;37364;46.974;18.916;2022-09-09T09:01:56;156348.53;;;23.73;85.02
51287;BME280;37364;46.974;18.916;2022-09-09T09:04:52;156366.88;;;23.80;85.20
51287;BME280;37364;46.974;18.916;2022-09-09T09:07:33;156207.56;;;23.18;82.81
51287;BME280;37364;46.974;18.916;2022-09-09T09:10:24;156233.66;;;23.28;80.25
51287;BME280;37364;46.974;18.916;2022-09-09T09:13:15;156344.59;;;23.72;80.99
51287;BME280;37364;46.974;18.916;2022-09-09T09:15:53;156381.25;;;23.86;78.66
51287;BME280;37364;46.974;18.916;2022-09-09T09:18:24;156379.91;;;23.85;77.31
51287;BME280;37364;46.974;18.916;2022-09-09T09:21:02;156396.91;;;23.92;75.83
51287;BME280;37364;46.974;18.916;2022-09-09T09:23:42;156494.88;;;24.31;78.66
51287;BME280;37364;46.974;18.916;2022-09-09T09:26:18;156518.34;;;24.40;75.48
51287;BME280;37364;46.974;18.916;2022-09-09T09:28:50;156506.63;;;24.35;74.82
51287;BME280;37364;46.974;18.916;2022-09-09T09:31:23;156543.19;;;24.50;72.64
51287;BME280;37364;46.974;18.916;2022-09-09T09:33:55;156642.50;;;24.89;68.17
51287;BME280;37364;46.974;18.916;2022-09-09T09:36:34;156696.09;;;25.10;66.77
51287;BME280;37364;46.974;18.916;2022-09-09T09:39:05;156728.78;;;25.22;68.65
51287;BME280;37364;46.974;18.916;2022-09-09T09:42:12;156795.47;;;25.49;64.61
51287;BME280;37364;46.974;18.916;2022-09-09T09:44:48;156722.22;;;25.20;64.36
51287;BME280;37364;46.974;18.916;2022-09-09T09:47:22;156788.91;;;25.46;66.25
51287;BME280;37364;46.974;18.916;2022-09-09T09:50:00;156701.31;;;25.12;73.97
51287;BME280;37364;46.974;18.916;2022-09-09T09:52:37;156621.63;;;24.80;72.41
51287;BME280;37364;46.974;18.916;2022-09-09T09:55:13;156787.59;;;25.45;71.54
51287;BME280;37364;46.974;18.916;2022-09-09T09:57:51;156673.84;;;25.01;65.15
51287;BME280;37364;46.974;18.916;2022-09-09T10:00:24;156643.81;;;24.89;71.39
51287;BME280;37364;46.974;18.916;2022-09-09T10:03:19;156822.91;;;25.59;70.48
51287;BME280;37364;46.974;18.916;2022-09-09T10:05:52;156898.69;;;25.89;72.18
51287;BME280;37364;46.974;18.916;2022-09-09T10:08:24;156802.00;;;25.51;69.35
51287;BME280;37364;46.974;18.916;2022-09-09T10:11:10;156718.28;;;25.18;68.37
51287;BME280;37364;46.974;18.916;2022-09-09T10:13:59;156852.97;;;25.71;68.88
51287;BME280;37364;46.974;18.916;2022-09-09T10:16:38;156971.97;;;26.18;67.77
51287;BME280;37364;46.974;18.916;2022-09-09T10:19:18;156941.91;;;26.06;68.14
51287;BME280;37364;46.974;18.916;2022-09-09T10:22:04;156981.13;;;26.21;67.37
51287;BME280;37364;46.974;18.916;2022-09-09T10:24:51;156961.53;;;26.14;67.51
51287;BME280;37364;46.974;18.916;2022-09-09T10:27:32;156762.78;;;25.36;65.91
51287;BME280;37364;46.974;18.916;2022-09-09T10:30:16;156817.66;;;25.57;67.13
51287;BME280;37364;46.974;18.916;2022-09-09T10:32:57;156650.38;;;24.92;69.14
51287;BME280;37364;46.974;18.916;2022-09-09T10:35:35;156724.88;;;25.21;68.31
51287;BME280;37364;46.974;18.916;2022-09-09T10:38:15;156881.72;;;25.82;71.15
51287;BME280;37364;46.974;18.916;2022-09-09T10:41:06;156869.97;;;25.78;69.50
51287;BME280;37364;46.974;18.916;2022-09-09T10:44:02;156900.03;;;25.90;66.77
51287;BME280;37364;46.974;18.916;2022-09-09T10:46:49;156906.63;;;25.92;68.25
51287;BME280;37364;46.974;18.916;2022-09-09T10:49:43;156889.59;;;25.85;63.37
51287;BME280;37364;46.974;18.916;2022-09-09T10:52:24;156851.66;;;25.71;67.68
51287;BME280;37364;46.974;18.916;2022-09-09T10:55:06;156922.28;;;25.98;69.38
51287;BME280;37364;46.974;18.916;2022-09-09T10:57:42;157029.53;;;26.40;65.89
51287;BME280;37364;46.974;18.916;2022-09-09T11:00:17;156996.81;;;26.28;65.23
51287;BME280;37364;46.974;18.916;2022-09-09T11:02:55;157042.59;;;26.46;65.61
51287;BME280;37364;46.974;18.916;2022-09-09T11:05:28;156971.97;;;26.18;63.94
51287;BME280;37364;46.974;18.916;2022-09-09T11:08:04;156939.31;;;26.05;62.95
51287;BME280;37364;46.974;18.916;2022-09-09T11:10:41;157037.34;;;26.43;61.97
51287;BME280;37364;46.974;18.916;2022-09-09T11:13:19;157054.38;;;26.50;62.14
51287;BME280;37364;46.974;18.916;2022-09-09T11:15:54;157077.94;;;26.59;61.63
51287;BME280;37364;46.974;18.916;2022-09-09T11:18:38;156937.97;;;26.04;61.09
51287;BME280;37364;46.974;18.916;2022-09-09T11:21:17;156971.97;;;26.18;62.86
51287;BME280;37364;46.974;18.916;2022-09-09T11:23:53;157143.31;;;26.85;60.22
51287;BME280;37364;46.974;18.916;2022-09-09T11:26:31;157155.13;;;26.90;58.76
51287;BME280;37364;46.974;18.916;2022-09-09T11:29:18;157075.34;;;26.58;55.90
51287;BME280;37364;46.974;18.916;2022-09-09T11:32:01;157128.94;;;26.79;50.62
51287;BME280;37364;46.974;18.916;2022-09-09T11:34:51;157092.31;;;26.65;53.60
51287;BME280;37364;46.974;18.916;2022-09-09T11:37:43;156995.53;;;26.27;53.79
51287;BME280;37364;46.974;18.916;2022-09-09T11:40:21;157062.19;;;26.53;54.60
51287;BME280;37364;46.974;18.916;2022-09-09T11:43:04;157183.88;;;27.01;52.06
51287;BME280;37364;46.974;18.916;2022-09-09T11:45:35;157119.81;;;26.76;52.34
51287;BME280;37364;46.974;18.916;2022-09-09T11:48:23;157284.69;;;27.40;49.77
51287;BME280;37364;46.974;18.916;2022-09-09T11:51:04;157236.22;;;27.21;46.91
51287;BME280;37364;46.974;18.916;2022-09-09T11:53:50;157166.88;;;26.94;45.37
51287;BME280;37364;46.974;18.916;2022-09-09T11:56:26;157248.03;;;27.26;49.02
51287;BME280;37364;46.974;18.916;2022-09-09T11:59:00;157206.13;;;27.10;45.51
51287;BME280;37364;46.974;18.916;2022-09-09T12:01:39;157110.66;;;26.72;45.01
51287;BME280;37364;46.974;18.916;2022-09-09T12:04:36;157047.81;;;26.48;45.15
51287;BME280;37364;46.974;18.916;2022-09-09T12:07:28;157028.19;;;26.40;45.77
51287;BME280;37364;46.974;18.916;2022-09-09T12:10:04;157085.81;;;26.62;45.16
51287;BME280;37364;46.974;18.916;2022-09-09T12:12:37;157072.66;;;26.57;44.80
51287;BME280;37364;46.974;18.916;2022-09-09T12:15:23;157080.56;;;26.60;44.39
51287;BME280;37364;46.974;18.916;2022-09-09T12:17:58;157058.25;;;26.52;42.72
51287;BME280;37364;46.974;18.916;2022-09-09T12:20:35;157225.75;;;27.17;42.89
51287;BME280;37364;46.974;18.916;2022-09-09T12:23:32;157234.91;;;27.21;40.64
51287;BME280;37364;46.974;18.916;2022-09-09T12:26:20;157306.91;;;27.49;40.90
51287;BME280;37364;46.974;18.916;2022-09-09T12:29:04;157131.56;;;26.80;41.32
51287;BME280;37364;46.974;18.916;2022-09-09T12:31:44;157122.41;;;26.77;39.50
51287;BME280;37364;46.974;18.916;2022-09-09T12:34:22;157058.25;;;26.52;40.15
51287;BME280;37364;46.974;18.916;2022-09-09T12:37:00;156964.13;;;26.15;41.90
51287;BME280;37364;46.974;18.916;2022-09-09T12:39:38;157002.06;;;26.30;40.65
51287;BME280;37364;46.974;18.916;2022-09-09T12:42:17;157165.59;;;26.94;43.82
51287;BME280;37364;46.974;18.916;2022-09-09T12:44:52;157195.66;;;27.06;43.30
51287;BME280;37364;46.974;18.916;2022-09-09T12:47:26;157164.28;;;26.93;40.82
51287;BME280;37364;46.974;18.916;2022-09-09T12:49:59;157152.47;;;26.89;42.61
51287;BME280;37364;46.974;18.916;2022-09-09T12:52:32;157221.81;;;27.16;40.90
51287;BME280;37364;46.974;18.916;2022-09-09T12:55:17;157237.50;;;27.22;37.56
51287;BME280;37364;46.974;18.916;2022-09-09T12:57:49;157173.41;;;26.97;38.66
51287;BME280;37364;46.974;18.916;2022-09-09T13:00:22;157246.72;;;27.26;38.17
51287;BME280;37364;46.974;18.916;2022-09-09T13:02:56;157211.34;;;27.12;39.20
51287;BME280;37364;46.974;18.916;2022-09-09T13:05:36;157011.22;;;26.33;40.16
51287;BME280;37364;46.974;18.916;2022-09-09T13:08:11;157047.81;;;26.48;39.83
51287;BME280;37364;46.974;18.916;2022-09-09T13:10:51;157067.44;;;26.55;39.42
51287;BME280;37364;46.974;18.916;2022-09-09T13:13:32;157067.44;;;26.55;40.88
51287;BME280;37364;46.974;18.916;2022-09-09T13:16:17;157097.56;;;26.67;40.55
51287;BME280;37364;46.974;18.916;2022-09-09T13:18:52;157203.50;;;27.09;39.79
51287;BME280;37364;46.974;18.916;2022-09-09T13:21:37;157196.97;;;27.06;40.84